createdAt,value
2019-03-01T00:01:15.691Z,72.59
2019-03-01T00:03:47.713Z,72.70
2019-03-01T00:06:26.531Z,72.79
2019-03-01T00:09:40.074Z,72.75
2019-03-01T00:12:50.501Z,72.77
2019-03-01T00:15:41.513Z,72.85
2019-03-01T00:18:36.056Z,73.12
2019-03-01T00:21:30.205Z,73.44
2019-03-01T00:24:41.844Z,73.48
2019-03-01T00:27:53.169Z,73.87
2019-03-01T00:30:46.830Z,74.09
2019-03-01T00:34:07.293Z,74.43
2019-03-01T00:36:47.128Z,74.63
2019-03-01T00:39:35.683Z,74.94
2019-03-01T00:42:37.050Z,74.87
2019-03-01T00:45:07.689Z,74.95
2019-03-01T00:47:38.241Z,75.12
2019-03-01T00:50:08.765Z,75.10
2019-03-01T00:52:40.421Z,75.18
2019-03-01T00:55:10.889Z,75.27
2019-03-01T00:57:41.439Z,74.74
2019-03-01T01:00:18.614Z,74.71
2019-03-01T01:02:49.916Z,74.81
2019-03-01T01:05:21.056Z,75.05
2019-03-01T01:07:53.320Z,75.19
2019-03-01T01:10:40.048Z,74.95
2019-03-01T01:13:11.485Z,74.98
2019-03-01T01:15:42.616Z,74.07
2019-03-01T01:18:13.425Z,73.08
2019-03-01T01:20:44.310Z,72.47
2019-03-01T01:23:15.244Z,72.52
2019-03-01T01:25:46.606Z,72.61
2019-03-01T01:28:17.418Z,72.98
2019-03-01T01:30:47.864Z,73.27
2019-03-01T01:33:18.761Z,73.69
2019-03-01T01:35:49.287Z,74.05
2019-03-01T01:38:21.175Z,74.16
2019-03-01T01:40:51.974Z,74.32
2019-03-01T01:43:22.482Z,74.52
2019-03-01T01:45:53.184Z,74.60
2019-03-01T01:48:23.934Z,74.82
2019-03-01T01:50:54.926Z,74.96
2019-03-01T01:53:25.654Z,75.26
2019-03-01T01:55:57.295Z,75.40
2019-03-01T01:58:27.682Z,75.43
2019-03-01T02:00:58.156Z,75.66
2019-03-01T02:03:28.789Z,75.77
2019-03-01T02:06:01.228Z,76.12
2019-03-01T02:08:32.992Z,76.36
2019-03-01T02:11:03.660Z,76.48
2019-03-01T02:13:34.267Z,76.71
2019-03-01T02:16:04.905Z,76.88
2019-03-01T02:18:36.026Z,77.32
2019-03-01T02:21:06.466Z,77.77
2019-03-01T02:23:37.044Z,78.12
2019-03-01T02:26:09.287Z,78.25
2019-03-01T02:28:41.305Z,78.58
2019-03-01T02:31:12.118Z,78.74
2019-03-01T02:33:42.776Z,78.90
2019-03-01T02:36:14.268Z,79.05
2019-03-01T02:38:44.807Z,78.98
2019-03-01T02:41:15.583Z,79.01
2019-03-01T02:43:46.265Z,79.07
2019-03-01T02:46:17.279Z,78.94
2019-03-01T02:48:47.799Z,79.10
2019-03-01T02:51:18.339Z,78.97
2019-03-01T02:53:49.173Z,79.02
2019-03-01T02:56:19.705Z,79.26
2019-03-01T02:58:50.120Z,79.27
2019-03-01T03:01:20.517Z,79.15
2019-03-01T03:03:52.083Z,79.14
2019-03-01T03:06:29.489Z,79.25
2019-03-01T03:09:00.029Z,79.45
2019-03-01T03:11:30.941Z,79.45
2019-03-01T03:14:01.762Z,79.33
2019-03-01T03:16:32.663Z,79.69
2019-03-01T03:19:03.200Z,79.13
2019-03-01T03:21:33.575Z,79.35
2019-03-01T03:24:04.193Z,79.24
2019-03-01T03:26:35.103Z,79.17
2019-03-01T03:29:05.743Z,79.21
2019-03-01T03:31:36.354Z,79.08
2019-03-01T03:34:06.768Z,79.41
2019-03-01T03:36:37.441Z,79.35
2019-03-01T03:39:12.112Z,80.18
2019-03-01T03:41:42.930Z,80.57
2019-03-01T03:44:13.515Z,80.57
2019-03-01T03:46:44.224Z,81.03
2019-03-01T03:49:16.470Z,81.36
2019-03-01T03:51:47.287Z,81.92
2019-03-01T03:54:18.425Z,82.31
2019-03-01T03:56:49.216Z,82.94
2019-03-01T03:59:19.910Z,83.25
2019-03-01T04:01:51.040Z,83.19
2019-03-01T04:04:21.724Z,83.65
2019-03-01T04:06:52.632Z,83.85
2019-03-01T04:09:23.347Z,84.34
2019-03-01T04:11:54.357Z,84.43
2019-03-01T04:14:24.968Z,84.95
2019-03-01T04:16:55.378Z,85.01
2019-03-01T04:19:25.960Z,85.11
2019-03-01T04:21:56.483Z,85.51
2019-03-01T04:24:27.150Z,85.81
2019-03-01T04:26:57.784Z,85.90
2019-03-01T04:29:28.281Z,85.79
2019-03-01T04:31:58.766Z,86.13
2019-03-01T04:34:29.911Z,86.33
2019-03-01T04:37:00.525Z,86.35
2019-03-01T04:39:31.318Z,86.59
2019-03-01T04:42:01.850Z,86.19
2019-03-01T04:44:33.227Z,85.86
2019-03-01T04:47:03.761Z,85.88
2019-03-01T04:49:34.456Z,85.60
2019-03-01T04:52:32.244Z,85.64
2019-03-01T04:55:02.793Z,86.05
2019-03-01T04:57:33.576Z,86.21
2019-03-01T05:00:04.654Z,86.58
2019-03-01T05:02:35.206Z,86.51
2019-03-01T05:05:06.699Z,86.90
2019-03-01T05:07:37.371Z,87.14
2019-03-01T05:10:09.045Z,87.28
2019-03-01T05:12:39.526Z,87.65
2019-03-01T05:15:12.319Z,87.83
2019-03-01T05:17:43.093Z,87.97
2019-03-01T05:20:14.341Z,88.15
2019-03-01T05:22:45.043Z,88.28
2019-03-01T05:25:15.548Z,88.39
2019-03-01T05:27:46.054Z,88.29
2019-03-01T05:30:17.136Z,88.11
2019-03-01T05:32:47.845Z,87.85
2019-03-01T05:35:18.713Z,88.28
2019-03-01T05:37:50.290Z,88.16
2019-03-01T05:40:20.683Z,88.75
2019-03-01T05:42:51.421Z,88.64
2019-03-01T05:45:23.295Z,88.00
2019-03-01T05:47:53.810Z,88.49
2019-03-01T05:50:24.441Z,88.04
2019-03-01T05:52:55.676Z,87.83
2019-03-01T05:55:26.081Z,87.73
2019-03-01T05:58:39.559Z,88.01
2019-03-01T06:01:30.326Z,88.26
2019-03-01T06:04:33.803Z,87.91
2019-03-01T06:07:44.943Z,87.63
2019-03-01T06:10:27.481Z,87.92
2019-03-01T06:13:26.001Z,87.36
2019-03-01T06:16:21.302Z,86.98
2019-03-01T06:19:16.494Z,86.98
2019-03-01T06:22:33.069Z,86.85
2019-03-01T06:25:43.049Z,86.58
2019-03-01T06:29:12.163Z,86.35
2019-03-01T06:32:16.959Z,86.41
2019-03-01T06:35:24.763Z,86.63
2019-03-01T06:38:50.089Z,86.52
2019-03-01T06:41:49.438Z,85.61
2019-03-01T06:44:39.874Z,85.00
2019-03-01T06:47:42.231Z,84.78
2019-03-01T06:50:20.549Z,84.67
2019-03-01T06:52:51.097Z,84.44
2019-03-01T06:55:44.604Z,85.28
2019-03-01T06:58:32.891Z,86.25
2019-03-01T07:01:17.201Z,84.32
2019-03-01T07:03:53.067Z,84.28
2019-03-01T07:06:23.638Z,84.14
2019-03-01T07:08:54.096Z,83.60
2019-03-01T07:11:24.539Z,84.35
2019-03-01T07:13:54.961Z,84.72
2019-03-01T07:16:25.556Z,84.54
2019-03-01T07:18:56.483Z,84.26
2019-03-01T07:21:27.076Z,84.01
2019-03-01T07:23:57.763Z,83.99
2019-03-01T07:26:28.312Z,83.71
2019-03-01T07:28:58.840Z,84.12
2019-03-01T07:31:29.465Z,84.16
2019-03-01T07:34:00.010Z,83.98
2019-03-01T07:36:30.777Z,83.33
2019-03-01T07:39:01.286Z,83.76
2019-03-01T07:41:33.491Z,83.78
2019-03-01T07:44:03.983Z,83.71
2019-03-01T07:46:34.386Z,82.93
2019-03-01T07:49:05.858Z,83.23
2019-03-01T07:51:36.415Z,83.15
2019-03-01T07:54:06.786Z,82.65
2019-03-01T07:56:39.954Z,82.58
2019-03-01T07:59:09.610Z,82.28
2019-03-01T08:01:40.082Z,82.30
2019-03-01T08:04:10.631Z,82.13
2019-03-01T08:06:41.169Z,81.60
2019-03-01T08:09:13.318Z,81.50
2019-03-01T08:11:43.855Z,80.98
2019-03-01T08:14:14.378Z,80.27
2019-03-01T08:16:44.869Z,80.27
2019-03-01T08:19:22.427Z,80.41
2019-03-01T08:21:49.845Z,80.09
2019-03-01T08:24:20.234Z,78.94
2019-03-01T08:26:50.580Z,78.61
2019-03-01T08:29:21.112Z,78.35
2019-03-01T08:31:52.727Z,78.20
2019-03-01T08:34:23.951Z,77.68
2019-03-01T08:36:54.329Z,77.92
2019-03-01T08:39:25.033Z,77.90
2019-03-01T08:42:00.143Z,77.70
2019-03-01T08:44:27.734Z,77.06
2019-03-01T08:46:58.198Z,76.38
2019-03-01T08:49:28.633Z,75.84
2019-03-01T08:52:01.514Z,76.15
2019-03-01T08:54:31.263Z,76.47
2019-03-01T08:57:01.967Z,75.94
2019-03-01T08:59:32.373Z,75.79
2019-03-01T09:02:02.891Z,75.50
2019-03-01T09:04:37.738Z,75.74
2019-03-01T09:07:05.542Z,75.91
2019-03-01T09:09:36.108Z,76.21
2019-03-01T09:12:06.809Z,75.58
2019-03-01T09:14:38.725Z,75.36
2019-03-01T09:17:09.237Z,75.01
2019-03-01T09:19:40.197Z,74.99
2019-03-01T09:22:10.666Z,75.05
2019-03-01T09:24:41.348Z,74.18
2019-03-01T09:27:11.868Z,74.70
2019-03-01T09:29:42.423Z,75.11
2019-03-01T09:32:13.061Z,74.88
2019-03-01T09:34:44.314Z,75.59
2019-03-01T09:37:14.780Z,74.93
2019-03-01T09:39:45.321Z,74.22
2019-03-01T09:42:16.344Z,73.71
2019-03-01T09:44:46.911Z,72.63
2019-03-01T09:47:17.342Z,72.39
2019-03-01T09:49:47.703Z,70.67
2019-03-01T09:52:20.372Z,69.49
2019-03-01T09:54:50.296Z,68.93
2019-03-01T09:57:20.757Z,68.43
2019-03-01T09:59:51.258Z,67.22
2019-03-01T10:02:21.697Z,67.00
2019-03-01T10:04:52.451Z,66.37
2019-03-01T10:07:22.887Z,67.12
2019-03-01T10:09:53.371Z,66.89
2019-03-01T10:12:23.806Z,66.09
2019-03-01T10:14:54.281Z,66.71
2019-03-01T10:17:24.701Z,66.43
2019-03-01T10:19:55.104Z,66.11
2019-03-01T10:22:26.844Z,65.80
2019-03-01T10:24:57.514Z,65.67
2019-03-01T10:27:27.856Z,66.16
2019-03-01T10:29:58.472Z,66.24
2019-03-01T10:32:28.916Z,64.98
2019-03-01T10:34:59.663Z,65.20
2019-03-01T10:37:31.592Z,65.01
2019-03-01T10:40:02.140Z,64.87
2019-03-01T10:42:32.736Z,61.93
2019-03-01T10:45:03.224Z,62.53
2019-03-01T10:47:34.877Z,62.45
2019-03-01T10:50:06.380Z,62.18
2019-03-01T10:52:36.810Z,63.54
2019-03-01T10:55:08.547Z,62.28
2019-03-01T10:57:39.258Z,63.06
2019-03-01T11:00:18.014Z,62.06
2019-03-01T11:02:48.768Z,61.54
2019-03-01T11:05:19.800Z,62.80
2019-03-01T11:07:51.288Z,60.69
2019-03-01T11:10:24.470Z,61.04
2019-03-01T11:12:55.097Z,61.11
2019-03-01T11:15:25.631Z,60.53
2019-03-01T11:17:56.162Z,60.02
2019-03-01T11:20:27.014Z,57.63
2019-03-01T11:22:57.782Z,57.71
2019-03-01T11:25:28.347Z,58.18
2019-03-01T11:27:58.893Z,56.71
2019-03-01T11:30:30.328Z,55.07
2019-03-01T11:33:01.155Z,55.21
2019-03-01T11:35:31.680Z,56.06
2019-03-01T11:38:02.348Z,58.74
2019-03-01T11:40:33.540Z,57.03
2019-03-01T11:43:04.327Z,59.02
2019-03-01T11:45:34.712Z,58.93
2019-03-01T11:48:05.966Z,59.61
2019-03-01T11:50:36.482Z,58.86
2019-03-01T11:53:06.980Z,58.79
2019-03-01T11:55:37.428Z,58.69
2019-03-01T11:58:07.921Z,58.14
2019-03-01T12:00:38.603Z,58.92
2019-03-01T12:03:08.978Z,58.67
2019-03-01T12:05:39.523Z,59.96
2019-03-01T12:08:09.898Z,60.77
2019-03-01T12:10:40.345Z,60.10
2019-03-01T12:13:10.837Z,59.61
2019-03-01T12:15:41.458Z,58.51
2019-03-01T12:18:11.955Z,57.31
2019-03-01T12:20:42.653Z,58.05
2019-03-01T12:23:13.286Z,57.11
2019-03-01T12:25:43.981Z,57.26
2019-03-01T12:28:14.409Z,58.37
2019-03-01T12:30:44.972Z,58.69
2019-03-01T12:33:16.603Z,58.54
2019-03-01T12:35:47.321Z,58.63
2019-03-01T12:38:17.913Z,59.85
2019-03-01T12:40:48.889Z,59.49
2019-03-01T12:43:19.367Z,59.42
2019-03-01T12:45:52.660Z,59.69
2019-03-01T12:48:25.148Z,59.64
2019-03-01T12:50:56.267Z,59.32
2019-03-01T12:53:28.212Z,59.85
2019-03-01T12:55:58.752Z,59.28
2019-03-01T12:58:29.980Z,58.54
2019-03-01T13:01:00.562Z,58.91
2019-03-01T13:03:31.211Z,58.92
2019-03-01T13:06:03.872Z,59.32
2019-03-01T13:08:35.475Z,59.96
2019-03-01T13:11:12.471Z,60.93
2019-03-01T13:13:43.137Z,61.77
2019-03-01T13:16:13.531Z,61.72
2019-03-01T13:18:47.706Z,61.57
2019-03-01T13:21:18.195Z,62.57
2019-03-01T13:23:49.392Z,62.34
2019-03-01T13:26:20.389Z,62.53
2019-03-01T13:28:53.185Z,62.63
2019-03-01T13:31:24.787Z,62.50
2019-03-01T13:33:57.133Z,62.29
2019-03-01T13:36:28.829Z,63.02
2019-03-01T13:39:00.344Z,63.04
2019-03-01T13:41:36.880Z,63.81
2019-03-01T13:44:06.459Z,64.50
2019-03-01T13:46:37.896Z,64.51
2019-03-01T13:49:08.281Z,64.62
2019-03-01T13:51:39.960Z,64.11
2019-03-01T13:54:10.628Z,64.34
2019-03-01T13:56:41.627Z,64.64
2019-03-01T13:59:13.739Z,64.56
2019-03-01T14:01:44.551Z,64.63
2019-03-01T14:04:15.029Z,64.48
2019-03-01T14:06:45.509Z,64.55
2019-03-01T14:09:16.197Z,64.20
2019-03-01T14:11:46.620Z,64.10
2019-03-01T14:14:17.025Z,64.70
2019-03-01T14:16:49.170Z,65.60
2019-03-01T14:19:19.673Z,65.71
2019-03-01T14:21:50.594Z,66.01
2019-03-01T14:24:21.366Z,65.94
2019-03-01T14:26:53.903Z,65.32
2019-03-01T14:29:24.228Z,65.37
2019-03-01T14:31:55.077Z,65.77
2019-03-01T14:34:25.608Z,65.56
2019-03-01T14:36:56.186Z,66.05
2019-03-01T14:39:26.794Z,66.49
2019-03-01T14:41:57.460Z,66.45
2019-03-01T14:44:30.741Z,66.42
2019-03-01T14:47:00.364Z,66.93
2019-03-01T14:49:31.035Z,66.98
2019-03-01T14:52:01.543Z,66.66
2019-03-01T14:54:31.914Z,67.30
2019-03-01T14:57:11.867Z,66.95
2019-03-01T15:00:14.053Z,67.40
2019-03-01T15:03:05.179Z,67.59
2019-03-01T15:05:38.654Z,67.53
2019-03-01T15:08:07.971Z,67.77
2019-03-01T15:10:38.630Z,68.21
2019-03-01T15:13:09.119Z,68.46
2019-03-01T15:15:39.590Z,68.81
2019-03-01T15:18:10.345Z,68.83
2019-03-01T15:20:42.921Z,69.24
2019-03-01T15:23:15.034Z,69.71
2019-03-01T15:25:48.550Z,70.32
2019-03-01T15:28:17.956Z,70.23
2019-03-01T15:30:50.601Z,70.23
2019-03-01T15:33:22.235Z,71.13
2019-03-01T15:35:52.864Z,71.13
2019-03-01T15:38:23.842Z,71.26
2019-03-01T15:40:55.563Z,71.98
2019-03-01T15:43:26.534Z,72.27
2019-03-01T15:45:58.950Z,73.06
2019-03-01T15:48:29.557Z,73.97
2019-03-01T15:51:02.459Z,74.66
2019-03-01T15:53:32.232Z,74.86
2019-03-01T15:56:05.929Z,75.10
2019-03-01T15:58:34.867Z,75.83
2019-03-01T16:01:11.131Z,75.89
2019-03-01T16:03:41.504Z,76.16
2019-03-01T16:06:17.513Z,76.56
2019-03-01T16:08:48.078Z,76.79
2019-03-01T16:11:21.222Z,77.00
2019-03-01T16:13:51.755Z,76.85
2019-03-01T16:16:22.407Z,76.93
2019-03-01T16:18:53.906Z,77.21
2019-03-01T16:21:24.792Z,77.43
2019-03-01T16:23:55.532Z,77.62
2019-03-01T16:26:29.831Z,77.68
2019-03-01T16:28:58.269Z,78.32
2019-03-01T16:31:31.933Z,78.82
2019-03-01T16:34:04.376Z,79.07
2019-03-01T16:36:36.147Z,79.48
2019-03-01T16:39:12.592Z,79.50
2019-03-01T16:41:43.980Z,80.06
2019-03-01T16:44:14.452Z,80.49
2019-03-01T16:46:45.055Z,80.63
2019-03-01T16:49:16.295Z,80.86
2019-03-01T16:51:46.823Z,81.09
2019-03-01T16:54:18.218Z,81.30
2019-03-01T16:56:49.303Z,81.51
2019-03-01T16:59:19.841Z,81.40
2019-03-01T17:01:50.486Z,81.32
2019-03-01T17:04:27.131Z,81.73
2019-03-01T17:06:54.761Z,81.42
2019-03-01T17:09:26.218Z,81.45
2019-03-01T17:11:56.974Z,81.58
2019-03-01T17:14:28.573Z,81.24
2019-03-01T17:17:00.748Z,76.65
2019-03-01T17:19:31.383Z,77.97
2019-03-01T17:22:02.997Z,76.98
2019-03-01T17:24:33.514Z,72.50
2019-03-01T17:27:06.888Z,69.12
2019-03-01T17:29:39.237Z,67.75
2019-03-01T17:32:09.517Z,67.46
2019-03-01T17:34:41.896Z,64.60
2019-03-01T17:37:13.307Z,63.96
2019-03-01T17:39:44.851Z,63.74
2019-03-01T17:42:17.541Z,64.24
2019-03-01T17:44:48.709Z,65.48
2019-03-01T17:47:19.466Z,66.76
2019-03-01T17:49:50.269Z,66.82
2019-03-01T17:52:21.190Z,66.49
2019-03-01T17:54:52.642Z,65.69
2019-03-01T17:57:24.262Z,66.26
2019-03-01T17:59:55.761Z,66.66
2019-03-01T18:02:26.671Z,66.80
2019-03-01T18:04:57.810Z,67.25
2019-03-01T18:07:28.564Z,67.36
2019-03-01T18:09:59.623Z,67.78
2019-03-01T18:12:30.311Z,68.11
2019-03-01T18:15:01.839Z,68.39
2019-03-01T18:17:36.241Z,68.38
2019-03-01T18:20:06.354Z,68.47
2019-03-01T18:22:36.992Z,69.18
2019-03-01T18:25:09.685Z,69.45
2019-03-01T18:27:41.149Z,69.70
2019-03-01T18:30:19.741Z,70.28
2019-03-01T18:32:50.377Z,71.29
2019-03-01T18:35:21.190Z,71.32
2019-03-01T18:37:54.896Z,71.48
2019-03-01T18:40:23.990Z,71.07
2019-03-01T18:42:54.525Z,71.45
2019-03-01T18:45:25.313Z,71.65
2019-03-01T18:47:56.091Z,71.32
2019-03-01T18:50:31.164Z,71.30
2019-03-01T18:53:03.779Z,70.65
2019-03-01T18:55:35.071Z,70.74
2019-03-01T18:58:05.996Z,70.80
2019-03-01T19:00:37.732Z,70.86
2019-03-01T19:03:08.692Z,70.87
2019-03-01T19:05:41.176Z,70.89
2019-03-01T19:08:13.648Z,70.71
2019-03-01T19:10:53.750Z,70.76
2019-03-01T19:13:16.418Z,70.79
2019-03-01T19:15:48.121Z,70.76
2019-03-01T19:18:19.181Z,71.02
2019-03-01T19:20:50.065Z,71.24
2019-03-01T19:23:20.673Z,71.44
2019-03-01T19:25:51.803Z,71.72
2019-03-01T19:28:23.574Z,71.89
2019-03-01T19:30:54.541Z,72.09
2019-03-01T19:33:27.708Z,72.84
2019-03-01T19:36:00.562Z,72.85
2019-03-01T19:38:30.721Z,73.28
2019-03-01T19:41:03.656Z,73.91
2019-03-01T19:43:34.384Z,74.00
2019-03-01T19:46:04.985Z,74.37
2019-03-01T19:48:37.295Z,74.64
2019-03-01T19:51:07.992Z,75.19
2019-03-01T19:53:39.191Z,75.57
2019-03-01T19:56:09.539Z,75.98
2019-03-01T19:58:40.618Z,76.42
2019-03-01T20:01:10.955Z,76.80
2019-03-01T20:03:42.590Z,77.01
2019-03-01T20:06:13.802Z,77.05
2019-03-01T20:08:45.707Z,77.09
2019-03-01T20:11:16.223Z,77.40
2019-03-01T20:13:46.821Z,77.57
2019-03-01T20:16:19.719Z,77.89
2019-03-01T20:18:51.293Z,78.25
2019-03-01T20:21:21.829Z,78.53
2019-03-01T20:23:52.688Z,78.79
2019-03-01T20:26:26.482Z,78.88
2019-03-01T20:28:58.730Z,79.07
2019-03-01T20:31:30.434Z,79.22
2019-03-01T20:34:02.898Z,79.46
2019-03-01T20:36:33.263Z,79.58
2019-03-01T20:39:05.727Z,79.83
2019-03-01T20:41:40.140Z,79.97
2019-03-01T20:44:10.574Z,80.30
2019-03-01T20:46:43.944Z,80.43
2019-03-01T20:49:14.392Z,80.74
2019-03-01T20:51:46.105Z,80.83
2019-03-01T20:54:16.577Z,81.03
2019-03-01T20:56:51.643Z,81.11
2019-03-01T20:59:21.512Z,81.37
2019-03-01T21:01:52.449Z,81.38
2019-03-01T21:04:24.876Z,81.59
2019-03-01T21:06:55.782Z,81.61
2019-03-01T21:09:26.371Z,81.75
2019-03-01T21:11:57.750Z,81.91
2019-03-01T21:14:31.390Z,82.08
2019-03-01T21:17:02.080Z,82.28
2019-03-01T21:19:33.291Z,82.30
2019-03-01T21:22:04.777Z,82.44
2019-03-01T21:24:37.282Z,82.59
2019-03-01T21:27:08.388Z,82.69
2019-03-01T21:29:39.134Z,82.89
2019-03-01T21:32:11.727Z,82.89
2019-03-01T21:34:42.459Z,82.97
2019-03-01T21:37:13.742Z,82.69
2019-03-01T21:39:44.597Z,82.68
2019-03-01T21:42:16.945Z,82.57
2019-03-01T21:44:48.811Z,82.44
2019-03-01T21:47:19.664Z,82.29
2019-03-01T21:49:50.448Z,82.47
2019-03-01T21:52:21.105Z,82.27
2019-03-01T21:54:52.313Z,82.21
2019-03-01T21:57:24.066Z,82.36
2019-03-01T21:59:56.734Z,82.37
2019-03-01T22:02:27.782Z,82.43
2019-03-01T22:04:58.556Z,82.44
2019-03-01T22:07:29.254Z,82.36
2019-03-01T22:10:01.407Z,82.37
2019-03-01T22:12:32.614Z,82.57
2019-03-01T22:15:04.934Z,82.77
2019-03-01T22:17:35.892Z,82.74
2019-03-01T22:20:08.986Z,82.78
2019-03-01T22:22:41.114Z,82.63
2019-03-01T22:25:11.619Z,82.94
2019-03-01T22:27:42.746Z,82.83
2019-03-01T22:30:16.081Z,83.07
2019-03-01T22:32:47.651Z,83.41
2019-03-01T22:35:20.860Z,83.32
2019-03-01T22:37:54.213Z,83.37
2019-03-01T22:40:27.885Z,83.62
2019-03-01T22:42:58.926Z,83.96
2019-03-01T22:45:29.488Z,84.06
2019-03-01T22:48:01.025Z,84.16
2019-03-01T22:50:31.628Z,83.78
2019-03-01T22:53:06.602Z,83.47
2019-03-01T22:55:37.601Z,83.35
2019-03-01T22:58:10.404Z,83.25
2019-03-01T23:01:10.336Z,83.16
2019-03-01T23:03:42.752Z,83.07
2019-03-01T23:06:14.685Z,83.62
2019-03-01T23:08:47.737Z,84.05
2019-03-01T23:11:18.293Z,84.28
2019-03-01T23:13:52.776Z,84.49
2019-03-01T23:16:23.234Z,84.54
2019-03-01T23:18:56.603Z,84.80
2019-03-01T23:21:26.232Z,84.95
2019-03-01T23:23:59.695Z,85.17
2019-03-01T23:26:29.658Z,85.29
2019-03-01T23:29:00.285Z,85.30
2019-03-01T23:31:30.997Z,85.32
2019-03-01T23:34:03.604Z,85.07
2019-03-01T23:36:35.536Z,85.38
2019-03-01T23:39:07.028Z,84.99
2019-03-01T23:41:39.169Z,84.97
2019-03-01T23:44:09.555Z,84.79
2019-03-01T23:46:40.073Z,84.95
2019-03-01T23:49:12.206Z,84.77
2019-03-01T23:51:45.331Z,84.65
2019-03-01T23:54:15.096Z,84.65
2019-03-01T23:56:45.511Z,84.53
2019-03-01T23:59:16.928Z,84.65
